createdAt,value
2023-02-19T08:07:19.956Z,2.18
2023-02-19T08:09:46.221Z,2.43
2023-02-19T08:12:12.518Z,2.60
2023-02-19T08:14:38.785Z,2.59
2023-02-19T08:17:05.153Z,2.57
2023-02-19T08:19:31.453Z,2.74
2023-02-19T08:21:57.837Z,2.73
2023-02-19T08:24:24.104Z,2.90
2023-02-19T08:26:50.521Z,2.89
2023-02-19T08:29:16.962Z,2.80
2023-02-19T08:31:43.401Z,2.85
2023-02-19T08:34:09.717Z,2.86
2023-02-19T08:36:36.074Z,3.03
2023-02-19T08:39:02.380Z,3.12
2023-02-19T08:41:28.704Z,3.09
2023-02-19T08:43:55.040Z,3.25
2023-02-19T08:46:21.462Z,3.62
2023-02-19T08:48:47.894Z,3.33
2023-02-19T08:51:14.530Z,3.38
2023-02-19T08:53:41.389Z,3.30
2023-02-19T08:56:10.258Z,3.38
2023-02-19T08:58:37.051Z,3.37
2023-02-19T09:01:08.014Z,3.32
2023-02-19T09:03:34.373Z,3.28
2023-02-19T09:06:00.681Z,3.22
2023-02-19T09:08:26.951Z,3.40
2023-02-19T09:11:04.744Z,3.68
2023-02-19T09:13:31.096Z,3.65
2023-02-19T09:15:57.506Z,3.59
2023-02-19T09:18:25.115Z,3.75
2023-02-19T09:20:52.366Z,3.70
2023-02-19T09:23:18.895Z,3.65
2023-02-19T09:25:45.162Z,3.62
2023-02-19T09:28:11.469Z,3.66
2023-02-19T09:30:37.777Z,3.73
2023-02-19T09:33:05.696Z,3.86
2023-02-19T09:35:31.983Z,3.96
2023-02-19T09:38:00.672Z,4.04
2023-02-19T09:40:27.412Z,4.04
2023-02-19T09:42:53.752Z,3.96
2023-02-19T09:45:23.701Z,3.98
2023-02-19T09:47:55.295Z,3.92
2023-02-19T09:50:27.215Z,4.04
2023-02-19T09:52:59.279Z,4.04
2023-02-19T09:55:35.236Z,4.07
2023-02-19T09:58:17.842Z,4.09
2023-02-19T10:00:48.856Z,4.41
2023-02-19T10:03:23.005Z,4.80
2023-02-19T10:05:49.316Z,4.78
2023-02-19T10:08:19.442Z,4.89
2023-02-19T10:10:45.720Z,5.28
2023-02-19T10:13:22.995Z,5.36
2023-02-19T10:15:56.162Z,4.93
2023-02-19T10:18:24.672Z,4.95
2023-02-19T10:20:52.638Z,4.90
2023-02-19T10:23:20.022Z,4.99
2023-02-19T10:25:55.751Z,4.75
2023-02-19T10:28:26.682Z,4.67
2023-02-19T10:30:55.674Z,4.65
2023-02-19T10:33:22.584Z,4.93
2023-02-19T10:36:00.159Z,4.79
2023-02-19T10:38:37.397Z,4.94
2023-02-19T10:41:18.730Z,4.69
2023-02-19T10:44:14.465Z,5.06
2023-02-19T10:46:46.814Z,4.57
2023-02-19T10:49:31.817Z,4.62
2023-02-19T10:52:02.392Z,4.74
2023-02-19T10:54:32.475Z,4.99
2023-02-19T10:57:27.135Z,5.71
2023-02-19T10:59:59.576Z,5.57
2023-02-19T11:02:26.567Z,5.31
2023-02-19T11:05:09.667Z,5.58
2023-02-19T11:07:37.608Z,6.53
2023-02-19T11:10:06.179Z,7.15
2023-02-19T11:12:34.525Z,7.39
2023-02-19T11:15:19.711Z,7.33
2023-02-19T11:17:53.998Z,7.29
2023-02-19T11:20:20.521Z,7.25
2023-02-19T11:22:46.942Z,7.10
2023-02-19T11:25:13.172Z,7.03
2023-02-19T11:28:13.980Z,7.02
2023-02-19T11:30:44.915Z,6.86
2023-02-19T11:33:17.078Z,7.10
2023-02-19T11:35:44.520Z,7.67
2023-02-19T11:38:11.873Z,8.06
2023-02-19T11:40:47.639Z,7.94
2023-02-19T11:43:52.507Z,7.59
2023-02-19T11:46:27.521Z,7.42
2023-02-19T11:49:05.803Z,7.10
2023-02-19T11:51:59.950Z,6.68
2023-02-19T11:54:43.963Z,6.78
2023-02-19T11:57:37.942Z,6.67
2023-02-19T12:00:24.709Z,6.53
2023-02-19T12:03:14.999Z,6.57
2023-02-19T12:05:47.471Z,6.74
2023-02-19T12:08:33.209Z,7.09
2023-02-19T16:26:12.406Z,4.26
2023-02-19T16:28:41.227Z,4.27
2023-02-19T16:31:13.012Z,4.24
2023-02-19T16:33:44.079Z,4.19
2023-02-19T16:36:19.645Z,4.15
2023-02-19T16:39:07.821Z,4.12
2023-02-19T16:41:57.484Z,4.10
2023-02-19T16:44:26.626Z,4.06
2023-02-19T16:47:04.053Z,4.00
2023-02-19T16:49:30.736Z,3.97
2023-02-19T16:51:59.439Z,3.99
2023-02-19T16:54:25.848Z,3.93
2023-02-19T16:56:52.174Z,3.85
2023-02-19T16:59:18.447Z,3.81
2023-02-19T17:01:44.815Z,3.77
2023-02-19T17:04:13.091Z,3.76
2023-02-19T17:06:39.537Z,3.70
2023-02-19T17:09:07.487Z,3.66
2023-02-19T17:11:34.542Z,3.63
2023-02-19T17:14:00.840Z,3.58
2023-02-19T17:16:30.151Z,3.53
2023-02-19T17:18:56.622Z,3.57
2023-02-19T17:21:27.327Z,3.53
2023-02-19T17:23:54.128Z,3.43
2023-02-19T17:26:25.996Z,3.43
2023-02-19T17:28:52.309Z,3.36
2023-02-19T17:31:18.731Z,3.23
2023-02-19T17:33:45.339Z,3.11
2023-02-19T17:36:18.094Z,3.12
2023-02-19T17:38:45.168Z,3.12
2023-02-19T17:41:11.767Z,3.00
2023-02-19T17:43:38.264Z,2.91
2023-02-19T17:46:04.816Z,2.62
2023-02-19T17:48:31.156Z,2.50
2023-02-19T17:50:57.641Z,2.44
2023-02-19T17:53:23.976Z,2.43
2023-02-19T17:55:50.280Z,2.39
2023-02-19T17:58:16.560Z,2.48
2023-02-19T18:00:42.877Z,2.51
2023-02-19T18:03:09.152Z,2.52
2023-02-19T18:05:35.435Z,2.31
2023-02-19T18:08:01.913Z,2.16
2023-02-19T18:10:28.230Z,2.13
2023-02-19T18:12:54.503Z,2.17
2023-02-19T18:15:23.942Z,2.01
2023-02-19T18:17:50.597Z,1.94
2023-02-19T18:20:20.871Z,1.89
2023-02-19T18:22:47.244Z,1.76
2023-02-19T18:25:15.104Z,1.74
2023-02-19T18:27:41.447Z,1.73
2023-02-19T18:30:09.167Z,1.65
2023-02-19T18:32:35.420Z,1.73
2023-02-19T18:35:02.219Z,1.67
2023-02-19T18:37:29.562Z,1.64
2023-02-19T18:39:55.926Z,1.52
2023-02-19T18:42:22.244Z,1.55
2023-02-19T18:44:49.860Z,1.51
2023-02-19T18:47:17.853Z,1.40
2023-02-19T18:49:48.935Z,1.37
2023-02-19T18:52:16.895Z,1.36
2023-02-19T18:54:43.163Z,1.29
2023-02-19T18:57:09.462Z,1.37
2023-02-19T18:59:35.804Z,1.32
2023-02-19T19:02:02.394Z,1.29
2023-02-19T19:04:28.689Z,1.19
2023-02-19T19:06:55.018Z,1.26
2023-02-19T19:09:21.507Z,1.33
2023-02-19T19:11:48.125Z,1.48
2023-02-19T19:14:14.488Z,1.63
2023-02-19T19:16:40.908Z,1.70
2023-02-19T19:19:07.574Z,1.83
2023-02-19T19:21:34.273Z,1.90
2023-02-19T19:24:00.997Z,1.99
2023-02-19T19:26:27.624Z,2.12
2023-02-19T19:28:53.952Z,2.25
2023-02-19T19:31:21.987Z,2.32
2023-02-19T19:33:48.551Z,2.38
2023-02-19T19:36:20.539Z,2.38
2023-02-19T19:38:47.436Z,2.34
2023-02-19T19:41:18.893Z,2.39
2023-02-19T19:43:45.501Z,2.42
2023-02-19T19:46:11.934Z,2.43
2023-02-19T19:48:41.372Z,2.47
2023-02-19T19:51:07.658Z,2.55
2023-02-19T19:53:34.052Z,2.55
2023-02-19T19:56:01.190Z,2.53
2023-02-19T19:58:27.490Z,2.53
2023-02-19T20:00:54.280Z,2.52
2023-02-19T20:03:20.932Z,2.54
2023-02-19T20:05:48.684Z,2.52
2023-02-19T20:08:14.966Z,2.58
2023-02-19T20:10:41.242Z,2.59
2023-02-19T20:13:07.751Z,2.52
2023-02-19T20:15:34.050Z,2.49
2023-02-19T20:18:00.848Z,2.45
2023-02-19T20:20:27.610Z,2.42
2023-02-19T20:22:53.896Z,2.44
2023-02-19T20:25:22.049Z,2.44
2023-02-19T20:27:49.686Z,2.45
2023-02-19T20:30:17.045Z,2.36
2023-02-19T20:32:44.031Z,2.29
